No particular awareness of the weather is required.    There are no Weather-warnings


Meteo18 Weather Cam more information Meteo18 Weather Cam


Thunder radar more information blitzortung!


Rain radar more information rain snow radar


Visit our other weather sites:

Template documentation
and downloads

And another site



Weather Underground History page Text

Daily Summary for April 13, 2017 Units:  English    Metric   Both
« Previous Day
Next Day »
Daily Weekly Monthly Yearly Custom
  High: Low: Average:
Temperature: 63.7 °F 42.4 °F 53.1 °F
Dew Point: 49.1 °F 40.5 °F 44.4 °F
Humidity: 93 % 57 % 73 %
Wind Speed: 8 mph 0 mph 1.9 mph
Wind Gust: 13 mph - -
Wind:- - SSW
Pressure: 30.1 in 30.1 in -
Precipitation: 0 in    
Historical Graphs
 
 
Tabular Data for April 13, 2017
Time Temperature Dew Point Pressure Wind Wind Speed Wind Gust Humidity Rainfall Rate (Hourly)
00:02 53.4 °F 42.3 °F 30.1 in WNW 1 mph 4 mph 66 % 0 in
00:12 53.6 °F 42.4 °F 30.1 in WNW 1 mph 4 mph 66 % 0 in
00:17 54 °F 42.8 °F 30.1 in WNW 1 mph 4 mph 66 % 0 in
00:22 54 °F 42.8 °F 30.1 in WNW 3 mph 6 mph 66 % 0 in
00:27 54.1 °F 43 °F 30.1 in WNW 3 mph 8 mph 66 % 0 in
00:32 54.1 °F 43 °F 30.1 in WNW 4 mph 8 mph 66 % 0 in
00:37 54 °F 42.8 °F 30.1 in NW 4 mph 8 mph 66 % 0 in
00:42 53.8 °F 43.2 °F 30.1 in WNW 4 mph 8 mph 67 % 0 in
00:47 53.2 °F 42.6 °F 30.1 in NW 2 mph 7 mph 67 % 0 in
00:52 53.2 °F 42.6 °F 30.1 in WNW 3 mph 7 mph 67 % 0 in
00:57 53.1 °F 42.4 °F 30.1 in NW 3 mph 6 mph 67 % 0 in
01:02 52.7 °F 42.4 °F 30.1 in WNW 2 mph 6 mph 68 % 0 in
01:12 52.3 °F 42.1 °F 30.1 in WNW 3 mph 7 mph 68 % 0 in
01:17 52.3 °F 42.1 °F 30.1 in WNW 2 mph 7 mph 68 % 0 in
01:22 52.2 °F 42.3 °F 30.1 in NW 3 mph 9 mph 69 % 0 in
01:32 52 °F 42.4 °F 30.1 in NNW 3 mph 9 mph 70 % 0 in
01:37 51.6 °F 42.1 °F 30.1 in NW 2 mph 8 mph 70 % 0 in
01:42 51.4 °F 41.9 °F 30.1 in NW 1 mph 7 mph 70 % 0 in
01:47 51.3 °F 42.3 °F 30.1 in NW 2 mph 7 mph 71 % 0 in
01:52 51.1 °F 42.1 °F 30.1 in NW 1 mph 6 mph 71 % 0 in
01:57 50.7 °F 42.1 °F 30.1 in NW 3 mph 5 mph 72 % 0 in
02:02 50.5 °F 42.3 °F 30.1 in NNW 1 mph 6 mph 73 % 0 in
02:07 50.4 °F 42.1 °F 30.1 in NW 1 mph 6 mph 73 % 0 in
02:12 50.2 °F 42.3 °F 30.1 in WNW 2 mph 6 mph 74 % 0 in
02:17 49.8 °F 41.9 °F 30.1 in NNE 2 mph 4 mph 74 % 0 in
02:22 49.6 °F 42.1 °F 30.1 in Calm   3 mph 75 % 0 in
02:27 49.3 °F 41.7 °F 30.1 in North 2 mph 2 mph 75 % 0 in
02:32 48.7 °F 41.9 °F 30.1 in NNE 2 mph 4 mph 77 % 0 in
02:42 48 °F 41.9 °F 30.1 in North 2 mph 5 mph 79 % 0 in
02:47 47.8 °F 41.9 °F 30.1 in NNW 1 mph 5 mph 80 % 0 in
02:52 47.7 °F 42.1 °F 30.1 in NNW 2 mph 5 mph 81 % 0 in
03:02 47.1 °F 41.9 °F 30.1 in NNE 1 mph 4 mph 82 % 0 in
03:12 46.9 °F 42.1 °F 30.1 in Calm   4 mph 83 % 0 in
03:17 46.9 °F 42.1 °F 30.1 in Calm   3 mph 83 % 0 in
03:22 46.8 °F 41.9 °F 30.1 in Calm   3 mph 83 % 0 in
03:27 46.4 °F 41.9 °F 30.1 in North 1 mph 3 mph 84 % 0 in
03:32 46.2 °F 41.9 °F 30.1 in NNW 1 mph 5 mph 85 % 0 in
03:37 46.2 °F 42.3 °F 30.1 in North 1 mph 5 mph 86 % 0 in
03:42 46 °F 42.1 °F 30.1 in NNE 2 mph 5 mph 86 % 0 in
03:47 45.7 °F 41.7 °F 30.1 in NNW 2 mph 3 mph 86 % 0 in
03:52 45.5 °F 41.9 °F 30.1 in North 2 mph 4 mph 87 % 0 in
03:57 45.3 °F 41.7 °F 30.1 in NNE 1 mph 4 mph 87 % 0 in
04:02 45.1 °F 41.7 °F 30.1 in Calm   4 mph 88 % 0 in
04:12 45.3 °F 42.3 °F 30.1 in North 3 mph 5 mph 89 % 0 in
04:17 45.7 °F 42.3 °F 30.1 in NNE 3 mph 6 mph 88 % 0 in
04:22 45.7 °F 42.3 °F 30.1 in NNW 3 mph 6 mph 88 % 0 in
04:32 45.3 °F 41.9 °F 30.1 in NNW 1 mph 6 mph 88 % 0 in
04:37 45.1 °F 41.7 °F 30.1 in NW 1 mph 4 mph 88 % 0 in
04:42 45.1 °F 41.7 °F 30.1 in WNW 2 mph 3 mph 88 % 0 in
04:47 45 °F 41.5 °F 30.1 in NW 1 mph 4 mph 88 % 0 in
04:52 44.4 °F 40.8 °F 30.1 in North 2 mph 4 mph 87 % 0 in
04:57 44.1 °F 40.8 °F 30.1 in NW 2 mph 4 mph 88 % 0 in
05:02 44.1 °F 41 °F 30.1 in NNW 2 mph 4 mph 89 % 0 in
05:07 43.9 °F 40.8 °F 30.1 in NNW 1 mph 3 mph 89 % 0 in
05:17 43.9 °F 41.2 °F 30.1 in NNW 1 mph 3 mph 90 % 0 in
05:22 43.7 °F 40.6 °F 30.1 in WNW 2 mph 3 mph 89 % 0 in
05:32 43.5 °F 40.8 °F 30.1 in NW 1 mph 3 mph 90 % 0 in
05:37 43.5 °F 40.8 °F 30.1 in Calm   3 mph 90 % 0 in
05:42 43.5 °F 41 °F 30.1 in NNW 1 mph 3 mph 91 % 0 in
05:47 43.5 °F 41 °F 30.1 in Calm   2 mph 91 % 0 in
05:52 43.3 °F 40.8 °F 30.1 in Calm   2 mph 91 % 0 in
06:02 43.2 °F 40.6 °F 30.1 in Calm   2 mph 91 % 0 in
06:07 43.2 °F 40.6 °F 30.1 in Calm   2 mph 91 % 0 in
06:12 43 °F 40.5 °F 30.1 in Calm   1 mph 91 % 0 in
06:17 43 °F 40.5 °F 30.1 in Calm   1 mph 91 % 0 in
06:22 43 °F 40.5 °F 30.1 in NNW 1 mph 1 mph 91 % 0 in
06:27 43 °F 40.8 °F 30.1 in NW 1 mph 1 mph 92 % 0 in
06:32 43 °F 40.8 °F 30.1 in NW 2 mph 3 mph 92 % 0 in
06:37 43 °F 40.8 °F 30.1 in NNW 1 mph 3 mph 92 % 0 in
06:42 43.2 °F 41 °F 30.1 in NNW 1 mph 3 mph 92 % 0 in
06:52 43 °F 40.8 °F 30.1 in NNW 1 mph 3 mph 92 % 0 in
06:57 42.6 °F 40.5 °F 30.1 in Calm   3 mph 92 % 0 in
07:02 42.6 °F 40.5 °F 30.1 in North 1 mph 2 mph 92 % 0 in
07:12 42.4 °F 40.6 °F 30.1 in Calm   1 mph 93 % 0 in
07:17 42.4 °F 40.6 °F 30.1 in Calm   1 mph 93 % 0 in
07:22 42.4 °F 40.6 °F 30.1 in Calm   2 mph 93 % 0 in
07:32 42.6 °F 40.8 °F 30.1 in Calm   2 mph 93 % 0 in
07:37 42.6 °F 40.8 °F 30.1 in NW 1 mph 2 mph 93 % 0 in
07:42 42.6 °F 40.8 °F 30.1 in NW 1 mph 3 mph 93 % 0 in
07:47 42.8 °F 41 °F 30.1 in NW 1 mph 3 mph 93 % 0 in
07:52 43 °F 41.2 °F 30.1 in NW 1 mph 3 mph 93 % 0 in
08:02 43.2 °F 41.4 °F 30.1 in Calm   3 mph 93 % 0 in
08:07 43.5 °F 41.4 °F 30.1 in Calm   3 mph 92 % 0 in
08:12 43.9 °F 41.7 °F 30.1 in Calm   1 mph 92 % 0 in
08:17 44.1 °F 41.9 °F 30.1 in Calm   1 mph 92 % 0 in
08:22 44.4 °F 42.3 °F 30.1 in Calm   1 mph 92 % 0 in
08:27 44.8 °F 42.3 °F 30.1 in WNW 1 mph 1 mph 91 % 0 in
08:32 45 °F 42.4 °F 30.1 in Calm   2 mph 91 % 0 in
08:42 45.7 °F 43 °F 30.1 in Calm   2 mph 90 % 0 in
08:47 46 °F 43 °F 30.1 in Calm   2 mph 89 % 0 in
08:52 46.6 °F 43.5 °F 30.1 in Calm   2 mph 89 % 0 in
09:02 47.7 °F 43.7 °F 30.1 in Calm   1 mph 86 % 0 in
09:07 48.2 °F 44.2 °F 30.1 in Calm     86 % 0 in
09:12 48.9 °F 44.6 °F 30.1 in Calm     85 % 0 in
09:17 48.6 °F 43.7 °F 30.1 in Calm     83 % 0 in
09:22 48.6 °F 43.7 °F 30.1 in WNW 3 mph 4 mph 83 % 0 in
09:27 48.6 °F 43.9 °F 30.1 in Calm   4 mph 84 % 0 in
09:32 49.3 °F 44.4 °F 30.1 in NW 2 mph 4 mph 83 % 0 in
09:42 49.5 °F 43.9 °F 30.1 in WNW 1 mph 4 mph 81 % 0 in
09:47 49.6 °F 43.7 °F 30.1 in Calm   4 mph 80 % 0 in
09:52 49.6 °F 44.1 °F 30.1 in NNW 2 mph 5 mph 81 % 0 in
09:57 49.8 °F 43.9 °F 30.1 in Calm   6 mph 80 % 0 in
10:02 50.2 °F 43.9 °F 30.1 in WNW 1 mph 8 mph 79 % 0 in
10:12 51.1 °F 44.8 °F 30.1 in WNW 2 mph 8 mph 79 % 0 in
10:17 51.8 °F 44.8 °F 30.1 in Calm   3 mph 77 % 0 in
10:22 52.7 °F 45 °F 30.1 in ENE 1 mph 2 mph 75 % 0 in
10:27 52.5 °F 44.4 °F 30.1 in NE 2 mph 2 mph 74 % 0 in
10:32 52.3 °F 44.6 °F 30.1 in NNW 2 mph 2 mph 75 % 0 in
10:37 52.5 °F 44.8 °F 30.1 in Calm   4 mph 75 % 0 in
10:47 53.2 °F 44.8 °F 30.1 in North 2 mph 4 mph 73 % 0 in
10:52 53.2 °F 44.4 °F 30.1 in West 2 mph 2 mph 72 % 0 in
10:57 52.9 °F 44.1 °F 30.1 in NNW 5 mph 5 mph 72 % 0 in
11:02 53.1 °F 44.2 °F 30.1 in Calm   4 mph 72 % 0 in
11:12 54.3 °F 45.1 °F 30.1 in West 1 mph 7 mph 71 % 0 in
11:17 54.3 °F 44.4 °F 30.1 in WNW 2 mph 6 mph 69 % 0 in
11:22 54.1 °F 44.6 °F 30.1 in West 1 mph 6 mph 70 % 0 in
11:27 54.7 °F 45.1 °F 30.1 in Calm   6 mph 70 % 0 in
11:32 55.6 °F 46 °F 30.1 in North 1 mph 5 mph 70 % 0 in
11:37 55.8 °F 45.3 °F 30.1 in Calm   4 mph 68 % 0 in
11:42 55.9 °F 45.1 °F 30.1 in NE 4 mph 5 mph 67 % 0 in
11:47 55.4 °F 45.3 °F 30.1 in ENE 3 mph 6 mph 69 % 0 in
11:52 55.2 °F 44.4 °F 30.1 in Calm   6 mph 67 % 0 in
11:57 55.8 °F 45.3 °F 30.1 in West 1 mph 5 mph 68 % 0 in
12:07 56.1 °F 45 °F 30.1 in West 1 mph 5 mph 66 % 0 in
12:12 56.1 °F 45 °F 30.1 in Calm   5 mph 66 % 0 in
12:17 56.7 °F 45 °F 30.1 in Calm   5 mph 65 % 0 in
12:22 56.5 °F 44.8 °F 30.1 in NNE 5 mph 5 mph 65 % 0 in
12:27 56.3 °F 45.1 °F 30.1 in West 1 mph 7 mph 66 % 0 in
12:32 56.8 °F 45.1 °F 30.1 in Calm   7 mph 65 % 0 in
12:37 57.4 °F 45.7 °F 30.1 in WNW 6 mph 7 mph 65 % 0 in
12:42 57.2 °F 45.1 °F 30.1 in WNW 2 mph 6 mph 64 % 0 in
12:52 57.6 °F 45.1 °F 30.1 in NNE 2 mph 7 mph 63 % 0 in
12:57 58.1 °F 45.5 °F 30.1 in WNW 2 mph 7 mph 63 % 0 in
13:02 58.3 °F 45.3 °F 30.1 in NNW 3 mph 7 mph 62 % 0 in
13:07 58.1 °F 44.8 °F 30.1 in NE 3 mph 7 mph 61 % 0 in
13:12 58.3 °F 45.7 °F 30.1 in NNW 3 mph 7 mph 63 % 0 in
13:17 58.8 °F 46.2 °F 30.1 in NNW 3 mph 5 mph 63 % 0 in
13:22 59 °F 46 °F 30.1 in Calm   5 mph 62 % 0 in
13:32 58.6 °F 45.7 °F 30.1 in NNW 5 mph 6 mph 62 % 0 in
13:37 59.2 °F 45.3 °F 30.1 in NNE 1 mph 7 mph 60 % 0 in
13:42 59.5 °F 46 °F 30.1 in Calm   7 mph 61 % 0 in
13:47 59.9 °F 46.8 °F 30.1 in NW 2 mph 7 mph 62 % 0 in
13:52 60.1 °F 45.7 °F 30.1 in WSW 1 mph 7 mph 59 % 0 in
13:57 60.3 °F 46.8 °F 30.1 in Calm   7 mph 61 % 0 in
14:02 60.3 °F 45.9 °F 30.1 in NNE 1 mph 6 mph 59 % 0 in
14:07 60.4 °F 46.4 °F 30.1 in Calm   6 mph 60 % 0 in
14:12 60.6 °F 46.6 °F 30.1 in Calm   8 mph 60 % 0 in
14:17 61.2 °F 47.1 °F 30.1 in NE 2 mph 8 mph 60 % 0 in
14:22 60.8 °F 47.3 °F 30.1 in NNE 7 mph 9 mph 61 % 0 in
14:32 61 °F 47.5 °F 30.1 in WNW 4 mph 8 mph 61 % 0 in
14:37 62.2 °F 48.2 °F 30.1 in Calm   8 mph 60 % 0 in
14:42 62.1 °F 47.1 °F 30.1 in WNW 3 mph 8 mph 58 % 0 in
14:47 62.1 °F 47.5 °F 30.1 in NNW 4 mph 8 mph 59 % 0 in
14:52 61.9 °F 47.5 °F 30.1 in NW 3 mph 8 mph 59 % 0 in
14:57 61.7 °F 48.6 °F 30.1 in NW 2 mph 8 mph 62 % 0 in
15:02 62.2 °F 49.1 °F 30.1 in North 5 mph 8 mph 62 % 0 in
15:07 61.3 °F 46.9 °F 30.1 in NNE 4 mph 7 mph 59 % 0 in
15:12 61.2 °F 47.7 °F 30.1 in NNE 4 mph 8 mph 61 % 0 in
15:17 61.5 °F 47.5 °F 30.1 in WNW 4 mph 10 mph 60 % 0 in
15:22 61.3 °F 46.9 °F 30.1 in NNE 1 mph 10 mph 59 % 0 in
15:32 61.5 °F 48 °F 30.1 in WNW 3 mph 10 mph 61 % 0 in
15:42 62.1 °F 48 °F 30.1 in NW 4 mph 10 mph 60 % 0 in
15:47 62.6 °F 47.7 °F 30.1 in WNW 2 mph 7 mph 58 % 0 in
15:52 62.8 °F 48.2 °F 30.1 in NNW 2 mph 6 mph 59 % 0 in
15:57 63.3 °F 48.7 °F 30.1 in NE 7 mph 7 mph 59 % 0 in
16:02 63.5 °F 48.9 °F 30.1 in NW 6 mph 7 mph 59 % 0 in
16:12 62.6 °F 48 °F 30.1 in Calm   10 mph 59 % 0 in
16:17 62.1 °F 47.1 °F 30.1 in NE 4 mph 8 mph 58 % 0 in
16:22 61.5 °F 47.1 °F 30.1 in Calm   8 mph 59 % 0 in
16:32 62.6 °F 48 °F 30.1 in East 1 mph 7 mph 59 % 0 in
16:37 63 °F 48.4 °F 30.1 in North 6 mph 8 mph 59 % 0 in
16:42 63.1 °F 48.6 °F 30.1 in NNE 5 mph 8 mph 59 % 0 in
16:47 63.3 °F 48.4 °F 30.1 in NNE 5 mph 8 mph 58 % 0 in
16:52 62.8 °F 47.8 °F 30.1 in North 1 mph 8 mph 58 % 0 in
16:57 63 °F 48.4 °F 30.1 in ENE 5 mph 8 mph 59 % 0 in
17:02 63.3 °F 47.8 °F 30.1 in NE 1 mph 7 mph 57 % 0 in
17:07 63.1 °F 48.2 °F 30.1 in NNW 4 mph 8 mph 58 % 0 in
17:12 63 °F 48.9 °F 30.1 in NW 2 mph 9 mph 60 % 0 in
17:17 63.3 °F 48.4 °F 30.1 in NNW 3 mph 9 mph 58 % 0 in
17:27 62.8 °F 47.3 °F 30.1 in WNW 1 mph 6 mph 57 % 0 in
17:32 63.7 °F 49.1 °F 30.1 in West 3 mph 5 mph 59 % 0 in
17:37 63.3 °F 47.8 °F 30.1 in NE 3 mph 8 mph 57 % 0 in
17:42 62.8 °F 48.2 °F 30.1 in NNW 2 mph 8 mph 59 % 0 in
17:47 62.4 °F 48.4 °F 30.1 in NE 8 mph 9 mph 60 % 0 in
17:52 62.1 °F 48.4 °F 30.1 in NNE 7 mph 11 mph 61 % 0 in
17:57 62.1 °F 48.9 °F 30.1 in North 3 mph 11 mph 62 % 0 in
18:02 62.1 °F 48 °F 30.1 in NNE 2 mph 10 mph 60 % 0 in
18:07 61.7 °F 48.2 °F 30.1 in NNW 5 mph 13 mph 61 % 0 in
18:12 61.9 °F 47.5 °F 30.1 in NNW 3 mph 13 mph 59 % 0 in
18:17 61.9 °F 47.8 °F 30.1 in NNE 2 mph 13 mph 60 % 0 in
18:22 61.7 °F 47.7 °F 30.1 in NNE 3 mph 9 mph 60 % 0 in
18:27 61.7 °F 48.2 °F 30.1 in NW 5 mph 11 mph 61 % 0 in
18:32 61.3 °F 47.8 °F 30.1 in NNE 2 mph 11 mph 61 % 0 in
18:37 61.2 °F 47.1 °F 30.1 in NNE 4 mph 11 mph 60 % 0 in
18:47 61 °F 46.9 °F 30.1 in NE 3 mph 8 mph 60 % 0 in
18:52 61 °F 46.6 °F 30.1 in NNE 7 mph 8 mph 59 % 0 in
18:57 61.2 °F 47.7 °F 30.1 in NNE 2 mph 9 mph 61 % 0 in
19:02 61.5 °F 48 °F 30.1 in North 1 mph 9 mph 61 % 0 in
19:12 61.3 °F 47.3 °F 30.1 in NNE 4 mph 7 mph 60 % 0 in
19:22 60.6 °F 47.1 °F 30.1 in NE 7 mph 10 mph 61 % 0 in
19:37 60.3 °F 47.7 °F 30.1 in North 4 mph 9 mph 63 % 0 in
19:42 59.9 °F 47.7 °F 30.1 in NE 3 mph 9 mph 64 % 0 in
19:47 59.7 °F 47.1 °F 30.1 in NE 4 mph 9 mph 63 % 0 in
19:52 59.5 °F 47.3 °F 30.1 in North 4 mph 8 mph 64 % 0 in
19:57 59.2 °F 46.9 °F 30.1 in NNE 5 mph 9 mph 64 % 0 in
20:02 58.8 °F 47.1 °F 30.1 in NNE 4 mph 9 mph 65 % 0 in
20:12 57.9 °F 46.6 °F 30.1 in NNE 6 mph 8 mph 66 % 0 in
20:17 57.6 °F 46.2 °F 30.1 in NNE 7 mph 8 mph 66 % 0 in
20:22 57 °F 46.2 °F 30.1 in North 3 mph 8 mph 67 % 0 in
20:27 56.5 °F 46 °F 30.1 in NNE 4 mph 8 mph 68 % 0 in
20:32 56.1 °F 46 °F 30.1 in NNE 4 mph 8 mph 69 % 0 in
20:42 55.6 °F 45.5 °F 30.1 in NW 1 mph 11 mph 69 % 0 in
20:52 55.2 °F 45.7 °F 30.1 in NNE 1 mph 8 mph 70 % 0 in
20:57 55.2 °F 45.7 °F 30.1 in NE 2 mph 10 mph 70 % 0 in
21:02 54.9 °F 45.3 °F 30.1 in NE 2 mph 10 mph 70 % 0 in
21:12 54.3 °F 45.1 °F 30.1 in NNE 2 mph 6 mph 71 % 0 in
21:17 54.1 °F 45.3 °F 30.1 in NE 2 mph 6 mph 72 % 0 in
21:22 54.1 °F 45.3 °F 30.1 in NNE 4 mph 5 mph 72 % 0 in
21:27 53.8 °F 45.3 °F 30.1 in North 2 mph 5 mph 73 % 0 in
21:37 53.1 °F 45 °F 30.1 in NNE 3 mph 5 mph 74 % 0 in
21:42 53.1 °F 45 °F 30.1 in Calm   4 mph 74 % 0 in
21:47 52.9 °F 44.8 °F 30.1 in ENE 2 mph 4 mph 74 % 0 in
21:52 52.5 °F 44.8 °F 30.1 in NNE 3 mph 4 mph 75 % 0 in
21:57 52.5 °F 44.8 °F 30.1 in NNE 3 mph 4 mph 75 % 0 in
22:02 52.5 °F 44.8 °F 30.1 in ENE 1 mph 4 mph 75 % 0 in
22:07 52.3 °F 44.6 °F 30.1 in NNE 2 mph 5 mph 75 % 0 in
22:12 52 °F 44.2 °F 30.1 in Calm   5 mph 75 % 0 in
22:17 51.6 °F 44.2 °F 30.1 in Calm   5 mph 76 % 0 in
22:22 51.6 °F 44.2 °F 30.1 in NNW 1 mph 4 mph 76 % 0 in
22:27 51.6 °F 44.2 °F 30.1 in NNE 1 mph 3 mph 76 % 0 in
22:32 51.6 °F 43.9 °F 30.1 in NNW 2 mph 3 mph 75 % 0 in
22:37 51.4 °F 43.7 °F 30.1 in Calm   3 mph 75 % 0 in
22:47 51.1 °F 43.5 °F 30.1 in Calm   3 mph 75 % 0 in
22:52 50.7 °F 43.5 °F 30.1 in Calm   2 mph 76 % 0 in
22:57 50.4 °F 43.2 °F 30.1 in Calm   2 mph 76 % 0 in
23:02 49.8 °F 43 °F 30.1 in Calm   2 mph 77 % 0 in
23:07 49.8 °F 43 °F 30.1 in Calm   1 mph 77 % 0 in
23:12 49.8 °F 43 °F 30.1 in Calm   1 mph 77 % 0 in
23:17 49.6 °F 42.8 °F 30.1 in Calm   1 mph 77 % 0 in
23:27 49.5 °F 42.8 °F 30.1 in Calm   1 mph 78 % 0 in
23:37 49.5 °F 42.6 °F 30.1 in Calm   1 mph 77 % 0 in
23:42 49.5 °F 42.6 °F 30.1 in Calm   1 mph 77 % 0 in
23:47 48.9 °F 42.4 °F 30.1 in Calm   1 mph 78 % 0 in
23:52 48.9 °F 42.4 °F 30.1 in Calm   1 mph 78 % 0 in
23:57 48.7 °F 42.3 °F 30.1 in Calm   1 mph 78 % 0 in
Meteo18
Compliments of Weather Underground - 4 mb

Script developed by  Jim McMurry - jmcmurry@mwt.net Adapted for the template by  Wim van der Kuil - Leuven-Template.eu

You find our weather info also at:

European Weather Network

Weather Underground

Equipment we use:

Weather-station
Davis Vue

Weather-program
Meteohub

Weather-server
Raspberry PI 2 B+

Provider
1 and 1

Davis Vue

Meteohub

Raspberry PI 2 B+

1 and 1